sensor_id;sensor_type;location;lat;lon;timestamp;pressure;altitude;pressure_sealevel;temperature
61977;BMP280;45905;50.570;10.428;2023-04-01T00:00:54;96191.16;;;9.46
61977;BMP280;45905;50.570;10.428;2023-04-01T00:03:24;96184.19;;;9.48
61977;BMP280;45905;50.570;10.428;2023-04-01T00:05:52;96194.09;;;9.49
61977;BMP280;45905;50.570;10.428;2023-04-01T00:08:19;96188.47;;;9.47
61977;BMP280;45905;50.570;10.428;2023-04-01T00:10:47;96194.88;;;9.43
61977;BMP280;45905;50.570;10.428;2023-04-01T00:13:14;96186.50;;;9.43
61977;BMP280;45905;50.570;10.428;2023-04-01T00:15:42;96188.84;;;9.44
61977;BMP280;45905;50.570;10.428;2023-04-01T00:18:10;96182.84;;;9.45
61977;BMP280;45905;50.570;10.428;2023-04-01T00:20:38;96187.28;;;9.43
61977;BMP280;45905;50.570;10.428;2023-04-01T00:23:05;96183.19;;;9.42
61977;BMP280;45905;50.570;10.428;2023-04-01T00:25:32;96179.13;;;9.41
61977;BMP280;45905;50.570;10.428;2023-04-01T00:28:00;96185.50;;;9.37
61977;BMP280;45905;50.570;10.428;2023-04-01T00:30:27;96180.25;;;9.33
61977;BMP280;45905;50.570;10.428;2023-04-01T00:32:54;96189.56;;;9.32
61977;BMP280;45905;50.570;10.428;2023-04-01T00:35:22;96175.56;;;9.30
61977;BMP280;45905;50.570;10.428;2023-04-01T00:37:49;96181.38;;;9.30
61977;BMP280;45905;50.570;10.428;2023-04-01T00:40:30;96181.38;;;9.30
61977;BMP280;45905;50.570;10.428;2023-04-01T00:42:59;96169.16;;;9.27
61977;BMP280;45905;50.570;10.428;2023-04-01T00:45:40;96177.69;;;9.26
61977;BMP280;45905;50.570;10.428;2023-04-01T00:48:18;96173.00;;;9.23
61977;BMP280;45905;50.570;10.428;2023-04-01T00:51:07;96183.88;;;9.24
61977;BMP280;45905;50.570;10.428;2023-04-01T00:53:41;96183.53;;;9.27
61977;BMP280;45905;50.570;10.428;2023-04-01T00:56:21;96180.59;;;9.23
61977;BMP280;45905;50.570;10.428;2023-04-01T00:59:01;96182.50;;;9.21
61977;BMP280;45905;50.570;10.428;2023-04-01T01:01:30;96180.16;;;9.20
61977;BMP280;45905;50.570;10.428;2023-04-01T01:03:58;96177.28;;;9.23
61977;BMP280;45905;50.570;10.428;2023-04-01T01:15:54;96183.41;;;9.08
61977;BMP280;45905;50.570;10.428;2023-04-01T01:21:49;96179.16;;;9.08
61977;BMP280;45905;50.570;10.428;2023-04-01T01:27:12;96168.09;;;9.09
61977;BMP280;45905;50.570;10.428;2023-04-01T01:33:43;96158.34;;;9.06
61977;BMP280;45905;50.570;10.428;2023-04-01T01:36:06;96162.59;;;8.99
61977;BMP280;45905;50.570;10.428;2023-04-01T01:38:37;96170.00;;;9.01
61977;BMP280;45905;50.570;10.428;2023-04-01T01:41:07;96159.88;;;9.01
61977;BMP280;45905;50.570;10.428;2023-04-01T01:43:43;96165.47;;;8.96
61977;BMP280;45905;50.570;10.428;2023-04-01T01:46:18;96163.91;;;8.95
61977;BMP280;45905;50.570;10.428;2023-04-01T01:48:48;96162.34;;;8.95
61977;BMP280;45905;50.570;10.428;2023-04-01T01:51:20;96169.75;;;8.96
61977;BMP280;45905;50.570;10.428;2023-04-01T01:53:48;96163.31;;;8.94
61977;BMP280;45905;50.570;10.428;2023-04-01T01:56:21;96166.44;;;8.95
61977;BMP280;45905;50.570;10.428;2023-04-01T01:58:56;96155.75;;;8.94
61977;BMP280;45905;50.570;10.428;2023-04-01T02:01:30;96166.44;;;8.95
61977;BMP280;45905;50.570;10.428;2023-04-01T02:04:07;96173.41;;;8.94
61977;BMP280;45905;50.570;10.428;2023-04-01T02:06:42;96171.88;;;8.93
61977;BMP280;45905;50.570;10.428;2023-04-01T02:09:11;96171.09;;;8.92
61977;BMP280;45905;50.570;10.428;2023-04-01T02:11:54;96170.50;;;8.90
61977;BMP280;45905;50.570;10.428;2023-04-01T02:17:05;96158.84;;;8.89
61977;BMP280;45905;50.570;10.428;2023-04-01T02:19:48;96159.44;;;8.91
61977;BMP280;45905;50.570;10.428;2023-04-01T02:22:24;96163.31;;;8.94
61977;BMP280;45905;50.570;10.428;2023-04-01T02:24:59;96163.31;;;8.94
61977;BMP280;45905;50.570;10.428;2023-04-01T02:27:28;96159.84;;;8.95
61977;BMP280;45905;50.570;10.428;2023-04-01T02:29:57;96163.72;;;8.91
61977;BMP280;45905;50.570;10.428;2023-04-01T02:32:27;96153.78;;;8.89
61977;BMP280;45905;50.570;10.428;2023-04-01T02:34:55;96164.50;;;8.91
61977;BMP280;45905;50.570;10.428;2023-04-01T02:37:23;96161.38;;;8.89
61977;BMP280;45905;50.570;10.428;2023-04-01T02:39:50;96171.47;;;8.89
61977;BMP280;45905;50.570;10.428;2023-04-01T02:42:17;96160.94;;;8.86
61977;BMP280;45905;50.570;10.428;2023-04-01T02:44:44;96162.50;;;8.87
61977;BMP280;45905;50.570;10.428;2023-04-01T02:47:12;96167.19;;;8.90
61977;BMP280;45905;50.570;10.428;2023-04-01T02:49:39;96171.28;;;8.91
61977;BMP280;45905;50.570;10.428;2023-04-01T02:52:07;96172.84;;;8.92
61977;BMP280;45905;50.570;10.428;2023-04-01T02:54:34;96164.66;;;8.90
61977;BMP280;45905;50.570;10.428;2023-04-01T02:57:01;96177.28;;;8.90
61977;BMP280;45905;50.570;10.428;2023-04-01T02:59:28;96163.09;;;8.89
61977;BMP280;45905;50.570;10.428;2023-04-01T03:01:55;96174.16;;;8.88
61977;BMP280;45905;50.570;10.428;2023-04-01T03:04:22;96173.22;;;8.89
61977;BMP280;45905;50.570;10.428;2023-04-01T03:06:49;96168.16;;;8.89
61977;BMP280;45905;50.570;10.428;2023-04-01T03:09:18;96168.91;;;8.83
61977;BMP280;45905;50.570;10.428;2023-04-01T03:11:45;96172.75;;;8.79
61977;BMP280;45905;50.570;10.428;2023-04-01T03:14:12;96171.38;;;8.76
61977;BMP280;45905;50.570;10.428;2023-04-01T03:16:39;96163.44;;;8.79
61977;BMP280;45905;50.570;10.428;2023-04-01T03:19:06;96175.88;;;8.81
61977;BMP280;45905;50.570;10.428;2023-04-01T03:21:33;96176.06;;;8.79
61977;BMP280;45905;50.570;10.428;2023-04-01T03:24:01;96172.41;;;8.82
61977;BMP280;45905;50.570;10.428;2023-04-01T03:26:28;96167.34;;;8.82
61977;BMP280;45905;50.570;10.428;2023-04-01T03:28:56;96171.19;;;8.78
61977;BMP280;45905;50.570;10.428;2023-04-01T03:31:23;96173.34;;;8.81
61977;BMP280;45905;50.570;10.428;2023-04-01T03:33:54;96170.66;;;8.82
61977;BMP280;45905;50.570;10.428;2023-04-01T03:36:22;96164.03;;;8.81
61977;BMP280;45905;50.570;10.428;2023-04-01T03:38:49;96173.00;;;8.84
61977;BMP280;45905;50.570;10.428;2023-04-01T03:41:22;96183.44;;;8.81
61977;BMP280;45905;50.570;10.428;2023-04-01T03:43:50;96174.13;;;8.81
61977;BMP280;45905;50.570;10.428;2023-04-01T03:46:20;96172.41;;;8.82
61977;BMP280;45905;50.570;10.428;2023-04-01T03:48:48;96174.31;;;8.80
61977;BMP280;45905;50.570;10.428;2023-04-01T03:51:15;96180.94;;;8.81
61977;BMP280;45905;50.570;10.428;2023-04-01T03:53:42;96176.47;;;8.83
61977;BMP280;45905;50.570;10.428;2023-04-01T03:56:09;96177.25;;;8.83
61977;BMP280;45905;50.570;10.428;2023-04-01T03:58:37;96175.53;;;8.84
61977;BMP280;45905;50.570;10.428;2023-04-01T04:01:21;96169.88;;;8.82
61977;BMP280;45905;50.570;10.428;2023-04-01T04:03:52;96175.28;;;8.79
61977;BMP280;45905;50.570;10.428;2023-04-01T04:06:22;96167.09;;;8.77
61977;BMP280;45905;50.570;10.428;2023-04-01T04:08:50;96191.53;;;8.70
61977;BMP280;45905;50.570;10.428;2023-04-01T04:11:20;96189.00;;;8.70
61977;BMP280;45905;50.570;10.428;2023-04-01T04:13:50;96189.97;;;8.69
61977;BMP280;45905;50.570;10.428;2023-04-01T04:16:19;96190.56;;;8.71
61977;BMP280;45905;50.570;10.428;2023-04-01T04:18:53;96185.66;;;8.63
61977;BMP280;45905;50.570;10.428;2023-04-01T04:21:20;96191.31;;;8.65
61977;BMP280;45905;50.570;10.428;2023-04-01T04:23:47;96190.13;;;8.68
61977;BMP280;45905;50.570;10.428;2023-04-01T04:26:17;96194.06;;;8.70
61977;BMP280;45905;50.570;10.428;2023-04-01T04:28:53;96179.66;;;8.64
61977;BMP280;45905;50.570;10.428;2023-04-01T04:31:25;96193.44;;;8.68
61977;BMP280;45905;50.570;10.428;2023-04-01T04:33:55;96189.97;;;8.69
61977;BMP280;45905;50.570;10.428;2023-04-01T04:36:22;96187.03;;;8.66
61977;BMP280;45905;50.570;10.428;2023-04-01T04:38:51;96195.78;;;8.70
61977;BMP280;45905;50.570;10.428;2023-04-01T04:41:19;96195.97;;;8.68
61977;BMP280;45905;50.570;10.428;2023-04-01T04:43:55;96195.97;;;8.68
61977;BMP280;45905;50.570;10.428;2023-04-01T04:46:25;96191.66;;;8.62
61977;BMP280;45905;50.570;10.428;2023-04-01T04:49:08;96197.13;;;8.66
61977;BMP280;45905;50.570;10.428;2023-04-01T04:51:35;96199.22;;;8.62
61977;BMP280;45905;50.570;10.428;2023-04-01T04:54:04;96185.41;;;8.58
61977;BMP280;45905;50.570;10.428;2023-04-01T04:56:44;96193.84;;;8.65
61977;BMP280;45905;50.570;10.428;2023-04-01T04:59:11;96190.69;;;8.63
61977;BMP280;45905;50.570;10.428;2023-04-01T05:01:45;96190.88;;;8.62
61977;BMP280;45905;50.570;10.428;2023-04-01T05:04:13;96194.78;;;8.64
61977;BMP280;45905;50.570;10.428;2023-04-01T05:06:41;96195.75;;;8.63
61977;BMP280;45905;50.570;10.428;2023-04-01T05:09:09;96190.69;;;8.63
61977;BMP280;45905;50.570;10.428;2023-04-01T05:11:36;96194.97;;;8.63
61977;BMP280;45905;50.570;10.428;2023-04-01T05:14:03;96184.28;;;8.61
61977;BMP280;45905;50.570;10.428;2023-04-01T05:16:31;96194.19;;;8.62
61977;BMP280;45905;50.570;10.428;2023-04-01T05:18:59;96197.66;;;8.61
61977;BMP280;45905;50.570;10.428;2023-04-01T05:21:26;96196.09;;;8.60
61977;BMP280;45905;50.570;10.428;2023-04-01T05:23:55;96187.75;;;8.60
61977;BMP280;45905;50.570;10.428;2023-04-01T05:26:24;96189.31;;;8.61
61977;BMP280;45905;50.570;10.428;2023-04-01T05:28:51;96184.44;;;8.59
61977;BMP280;45905;50.570;10.428;2023-04-01T05:31:18;96178.44;;;8.60
61977;BMP280;45905;50.570;10.428;2023-04-01T05:33:47;96187.56;;;8.61
61977;BMP280;45905;50.570;10.428;2023-04-01T05:36:16;96188.97;;;8.64
61977;BMP280;45905;50.570;10.428;2023-04-01T05:38:43;96181.22;;;8.65
61977;BMP280;45905;50.570;10.428;2023-04-01T05:41:14;96181.00;;;8.67
61977;BMP280;45905;50.570;10.428;2023-04-01T05:43:44;96187.81;;;8.66
61977;BMP280;45905;50.570;10.428;2023-04-01T05:46:30;96186.97;;;8.59
61977;BMP280;45905;50.570;10.428;2023-04-01T05:49:06;96177.25;;;8.57
61977;BMP280;45905;50.570;10.428;2023-04-01T05:51:34;96184.84;;;8.57
61977;BMP280;45905;50.570;10.428;2023-04-01T05:54:01;96182.88;;;8.58
61977;BMP280;45905;50.570;10.428;2023-04-01T05:56:28;96187.75;;;8.60
61977;BMP280;45905;50.570;10.428;2023-04-01T05:58:56;96189.16;;;8.62
61977;BMP280;45905;50.570;10.428;2023-04-01T06:01:23;96178.25;;;8.62
61977;BMP280;45905;50.570;10.428;2023-04-01T06:03:51;96186.25;;;8.65
61977;BMP280;45905;50.570;10.428;2023-04-01T06:06:27;96181.59;;;8.69
61977;BMP280;45905;50.570;10.428;2023-04-01T06:17:52;96190.13;;;8.68
61977;BMP280;45905;50.570;10.428;2023-04-01T06:20:39;96195.59;;;8.71
61977;BMP280;45905;50.570;10.428;2023-04-01T06:23:17;96186.28;;;8.72
61977;BMP280;45905;50.570;10.428;2023-04-01T06:26:12;96192.31;;;8.71
61977;BMP280;45905;50.570;10.428;2023-04-01T06:29:13;96191.88;;;8.67
61977;BMP280;45905;50.570;10.428;2023-04-01T06:32:21;96199.09;;;8.70
61977;BMP280;45905;50.570;10.428;2023-04-01T06:37:55;96199.72;;;8.78
61977;BMP280;45905;50.570;10.428;2023-04-01T06:43:41;96209.06;;;8.78
61977;BMP280;45905;50.570;10.428;2023-04-01T06:46:48;96197.47;;;8.83
61977;BMP280;45905;50.570;10.428;2023-04-01T06:50:24;96204.03;;;8.84
61977;BMP280;45905;50.570;10.428;2023-04-01T06:53:30;96214.13;;;8.84
61977;BMP280;45905;50.570;10.428;2023-04-01T06:56:20;96203.69;;;8.87
61977;BMP280;45905;50.570;10.428;2023-04-01T06:59:10;96204.47;;;8.88
61977;BMP280;45905;50.570;10.428;2023-04-01T07:01:54;96201.41;;;8.92
61977;BMP280;45905;50.570;10.428;2023-04-01T07:04:44;96211.28;;;8.94
61977;BMP280;45905;50.570;10.428;2023-04-01T07:07:48;96196.69;;;8.83
61977;BMP280;45905;50.570;10.428;2023-04-01T07:16:43;96202.13;;;8.86
61977;BMP280;45905;50.570;10.428;2023-04-01T07:19:47;96206.03;;;8.89
61977;BMP280;45905;50.570;10.428;2023-04-01T07:22:31;96205.59;;;8.85
61977;BMP280;45905;50.570;10.428;2023-04-01T07:25:25;96203.69;;;8.87
61977;BMP280;45905;50.570;10.428;2023-04-01T07:28:15;96204.47;;;8.88
61977;BMP280;45905;50.570;10.428;2023-04-01T07:48:38;96229.81;;;9.00
61977;BMP280;45905;50.570;10.428;2023-04-01T07:51:28;96223.00;;;9.01
61977;BMP280;45905;50.570;10.428;2023-04-01T07:54:29;96216.59;;;9.05
61977;BMP280;45905;50.570;10.428;2023-04-01T07:57:22;96220.53;;;9.07
61977;BMP280;45905;50.570;10.428;2023-04-01T08:00:19;96215.09;;;9.10
61977;BMP280;45905;50.570;10.428;2023-04-01T08:09:58;96227.53;;;9.12
61977;BMP280;45905;50.570;10.428;2023-04-01T08:21:58;96230.91;;;9.25
61977;BMP280;45905;50.570;10.428;2023-04-01T08:24:40;96236.56;;;9.27
61977;BMP280;45905;50.570;10.428;2023-04-01T08:27:43;96225.28;;;9.29
61977;BMP280;45905;50.570;10.428;2023-04-01T08:33:19;96238.16;;;9.34
61977;BMP280;45905;50.570;10.428;2023-04-01T08:36:09;96245.16;;;9.38
61977;BMP280;45905;50.570;10.428;2023-04-01T08:41:58;96236.81;;;9.38
61977;BMP280;45905;50.570;10.428;2023-04-01T08:48:28;96234.91;;;9.46
61977;BMP280;45905;50.570;10.428;2023-04-01T08:55:19;96241.97;;;9.57
61977;BMP280;45905;50.570;10.428;2023-04-01T09:04:45;96237.31;;;9.54
61977;BMP280;45905;50.570;10.428;2023-04-01T09:30:47;96249.63;;;9.70
61977;BMP280;45905;50.570;10.428;2023-04-01T09:40:22;96242.97;;;9.62
61977;BMP280;45905;50.570;10.428;2023-04-01T09:46:15;96253.28;;;9.61
61977;BMP280;45905;50.570;10.428;2023-04-01T09:49:20;96245.09;;;9.65
61977;BMP280;45905;50.570;10.428;2023-04-01T09:52:18;96241.63;;;9.72
61977;BMP280;45905;50.570;10.428;2023-04-01T10:01:42;96250.09;;;9.92
61977;BMP280;45905;50.570;10.428;2023-04-01T10:12:59;96255.22;;;10.11
61977;BMP280;45905;50.570;10.428;2023-04-01T10:22:03;96258.34;;;10.19
61977;BMP280;45905;50.570;10.428;2023-04-01T10:40:38;96250.38;;;10.16
61977;BMP280;45905;50.570;10.428;2023-04-01T10:46:43;96251.13;;;10.10
61977;BMP280;45905;50.570;10.428;2023-04-01T11:13:39;96248.06;;;10.33
61977;BMP280;45905;50.570;10.428;2023-04-01T11:19:16;96255.28;;;10.43
61977;BMP280;45905;50.570;10.428;2023-04-01T11:22:52;96252.38;;;10.39
61977;BMP280;45905;50.570;10.428;2023-04-01T11:25:48;96257.63;;;10.44
61977;BMP280;45905;50.570;10.428;2023-04-01T11:32:02;96260.34;;;10.43
61977;BMP280;45905;50.570;10.428;2023-04-01T11:35:15;96266.19;;;10.43
61977;BMP280;45905;50.570;10.428;2023-04-01T11:44:22;96255.09;;;10.44
61977;BMP280;45905;50.570;10.428;2023-04-01T11:50:20;96263.09;;;10.60
61977;BMP280;45905;50.570;10.428;2023-04-01T11:53:12;96261.38;;;10.67
61977;BMP280;45905;50.570;10.428;2023-04-01T11:58:44;96257.84;;;10.81
61977;BMP280;45905;50.570;10.428;2023-04-01T12:07:21;96263.31;;;10.84
61977;BMP280;45905;50.570;10.428;2023-04-01T12:13:35;96267.97;;;10.81
61977;BMP280;45905;50.570;10.428;2023-04-01T12:16:22;96270.69;;;10.86
61977;BMP280;45905;50.570;10.428;2023-04-01T12:31:42;96275.97;;;10.90
61977;BMP280;45905;50.570;10.428;2023-04-01T12:34:58;96279.28;;;10.97
61977;BMP280;45905;50.570;10.428;2023-04-01T12:49:55;96283.78;;;11.08
61977;BMP280;45905;50.570;10.428;2023-04-01T12:53:20;96282.97;;;11.14
61977;BMP280;45905;50.570;10.428;2023-04-01T12:55:54;96284.53;;;11.08
61977;BMP280;45905;50.570;10.428;2023-04-01T13:08:16;96293.31;;;11.19
61977;BMP280;45905;50.570;10.428;2023-04-01T13:11:09;96287.66;;;11.17
61977;BMP280;45905;50.570;10.428;2023-04-01T13:17:02;96294.28;;;11.18
61977;BMP280;45905;50.570;10.428;2023-04-01T13:20:29;96286.50;;;11.06
61977;BMP280;45905;50.570;10.428;2023-04-01T13:29:45;96298.78;;;11.09
61977;BMP280;45905;50.570;10.428;2023-04-01T13:32:36;96300.31;;;11.17
61977;BMP280;45905;50.570;10.428;2023-04-01T13:43:37;96305.19;;;11.18
61977;BMP280;45905;50.570;10.428;2023-04-01T13:52:20;96307.72;;;11.24
61977;BMP280;45905;50.570;10.428;2023-04-01T13:58:14;96304.81;;;11.27
61977;BMP280;45905;50.570;10.428;2023-04-01T14:01:09;96309.88;;;11.27
61977;BMP280;45905;50.570;10.428;2023-04-01T14:03:54;96312.78;;;11.24
61977;BMP280;45905;50.570;10.428;2023-04-01T14:06:40;96320.59;;;11.23
61977;BMP280;45905;50.570;10.428;2023-04-01T14:27:22;96324.31;;;11.08
61977;BMP280;45905;50.570;10.428;2023-04-01T14:33:31;96330.75;;;11.10
61977;BMP280;45905;50.570;10.428;2023-04-01T14:50:49;96350.78;;;11.05
61977;BMP280;45905;50.570;10.428;2023-04-01T14:53:27;96346.88;;;11.03
61977;BMP280;45905;50.570;10.428;2023-04-01T14:55:58;96348.06;;;11.07
61977;BMP280;45905;50.570;10.428;2023-04-01T14:58:50;96347.09;;;11.08
61977;BMP280;45905;50.570;10.428;2023-04-01T15:05:55;96358.22;;;11.01
61977;BMP280;45905;50.570;10.428;2023-04-01T15:08:15;96360.94;;;10.99
61977;BMP280;45905;50.570;10.428;2023-04-01T15:11:06;96362.88;;;10.97
61977;BMP280;45905;50.570;10.428;2023-04-01T15:14:24;96355.47;;;10.96
61977;BMP280;45905;50.570;10.428;2023-04-01T15:17:05;96365.59;;;10.89
61977;BMP280;45905;50.570;10.428;2023-04-01T15:32:37;96374.97;;;11.08
61977;BMP280;45905;50.570;10.428;2023-04-01T15:40:40;96375.16;;;10.94
61977;BMP280;45905;50.570;10.428;2023-04-01T15:46:36;96387.41;;;10.97
61977;BMP280;45905;50.570;10.428;2023-04-01T15:49:41;96385.47;;;10.92
61977;BMP280;45905;50.570;10.428;2023-04-01T15:58:19;96394.84;;;10.98
61977;BMP280;45905;50.570;10.428;2023-04-01T16:01:12;96398.34;;;10.97
61977;BMP280;45905;50.570;10.428;2023-04-01T16:09:33;96398.53;;;10.96
61977;BMP280;45905;50.570;10.428;2023-04-01T16:12:48;96402.44;;;10.98
61977;BMP280;45905;50.570;10.428;2023-04-01T16:18:38;96412.75;;;10.97
61977;BMP280;45905;50.570;10.428;2023-04-01T16:24:48;96425.41;;;10.90
61977;BMP280;45905;50.570;10.428;2023-04-01T16:27:42;96424.03;;;10.82
61977;BMP280;45905;50.570;10.428;2023-04-01T16:33:59;96430.66;;;10.76
61977;BMP280;45905;50.570;10.428;2023-04-01T16:44:25;96435.31;;;10.86
61977;BMP280;45905;50.570;10.428;2023-04-01T16:47:07;96429.28;;;10.86
61977;BMP280;45905;50.570;10.428;2023-04-01T16:49:47;96433.38;;;10.87
61977;BMP280;45905;50.570;10.428;2023-04-01T16:53:02;96436.50;;;10.89
61977;BMP280;45905;50.570;10.428;2023-04-01T16:55:56;96438.06;;;10.90
61977;BMP280;45905;50.570;10.428;2023-04-01T17:04:44;96453.88;;;10.92
61977;BMP280;45905;50.570;10.428;2023-04-01T17:16:34;96464.00;;;10.92
61977;BMP280;45905;50.570;10.428;2023-04-01T17:28:05;96474.88;;;10.86
61977;BMP280;45905;50.570;10.428;2023-04-01T17:31:07;96478.19;;;10.87
61977;BMP280;45905;50.570;10.428;2023-04-01T17:37:04;96488.50;;;10.86
61977;BMP280;45905;50.570;10.428;2023-04-01T17:39:49;96505.06;;;10.82
61977;BMP280;45905;50.570;10.428;2023-04-01T17:42:37;96506.56;;;10.70
61977;BMP280;45905;50.570;10.428;2023-04-01T17:45:32;96495.09;;;10.68
61977;BMP280;45905;50.570;10.428;2023-04-01T18:02:59;96527.59;;;10.70
61977;BMP280;45905;50.570;10.428;2023-04-01T18:14:49;96546.47;;;10.68
61977;BMP280;45905;50.570;10.428;2023-04-01T18:20:58;96553.13;;;10.69
61977;BMP280;45905;50.570;10.428;2023-04-01T18:23:50;96552.16;;;10.70
61977;BMP280;45905;50.570;10.428;2023-04-01T18:26:34;96561.50;;;10.69
61977;BMP280;45905;50.570;10.428;2023-04-01T18:29:51;96561.69;;;10.68
61977;BMP280;45905;50.570;10.428;2023-04-01T18:32:51;96572.78;;;10.67
61977;BMP280;45905;50.570;10.428;2023-04-01T18:38:31;96575.88;;;10.63
61977;BMP280;45905;50.570;10.428;2023-04-01T18:41:48;96577.81;;;10.61
61977;BMP280;45905;50.570;10.428;2023-04-01T18:44:38;96595.13;;;10.57
61977;BMP280;45905;50.570;10.428;2023-04-01T18:56:10;96611.88;;;10.58
61977;BMP280;45905;50.570;10.428;2023-04-01T18:59:11;96615.22;;;10.59
61977;BMP280;45905;50.570;10.428;2023-04-01T19:02:25;96622.03;;;10.58
61977;BMP280;45905;50.570;10.428;2023-04-01T19:05:19;96620.63;;;10.56
61977;BMP280;45905;50.570;10.428;2023-04-01T19:07:52;96629.97;;;10.55
61977;BMP280;45905;50.570;10.428;2023-04-01T19:16:46;96635.41;;;10.52
61977;BMP280;45905;50.570;10.428;2023-04-01T19:19:22;96640.47;;;10.52
61977;BMP280;45905;50.570;10.428;2023-04-01T19:31:08;96648.81;;;10.47
61977;BMP280;45905;50.570;10.428;2023-04-01T19:37:40;96647.97;;;10.40
61977;BMP280;45905;50.570;10.428;2023-04-01T19:43:14;96661.34;;;10.34
61977;BMP280;45905;50.570;10.428;2023-04-01T19:46:27;96659.78;;;10.33
61977;BMP280;45905;50.570;10.428;2023-04-01T19:49:19;96660.75;;;10.32
61977;BMP280;45905;50.570;10.428;2023-04-01T19:52:01;96665.44;;;10.35
61977;BMP280;45905;50.570;10.428;2023-04-01T20:06:23;96682.19;;;10.36
61977;BMP280;45905;50.570;10.428;2023-04-01T20:14:42;96691.34;;;10.37
61977;BMP280;45905;50.570;10.428;2023-04-01T20:17:22;96698.16;;;10.36
61977;BMP280;45905;50.570;10.428;2023-04-01T20:20:20;96703.41;;;10.35
61977;BMP280;45905;50.570;10.428;2023-04-01T20:26:06;96718.59;;;10.35
61977;BMP280;45905;50.570;10.428;2023-04-01T20:31:43;96717.00;;;10.34
61977;BMP280;45905;50.570;10.428;2023-04-01T20:34:20;96719.75;;;10.32
61977;BMP280;45905;50.570;10.428;2023-04-01T20:51:37;96730.53;;;10.20
61977;BMP280;45905;50.570;10.428;2023-04-01T20:57:44;96743.78;;;10.22
61977;BMP280;45905;50.570;10.428;2023-04-01T21:00:37;96753.72;;;10.24
61977;BMP280;45905;50.570;10.428;2023-04-01T21:12:12;96756.25;;;10.24
61977;BMP280;45905;50.570;10.428;2023-04-01T21:14:56;96764.03;;;10.22
61977;BMP280;45905;50.570;10.428;2023-04-01T21:18:16;96769.09;;;10.22
61977;BMP280;45905;50.570;10.428;2023-04-01T21:23:49;96772.59;;;10.21
61977;BMP280;45905;50.570;10.428;2023-04-01T21:26:37;96771.00;;;10.20
61977;BMP280;45905;50.570;10.428;2023-04-01T21:32:52;96781.13;;;10.20
61977;BMP280;45905;50.570;10.428;2023-04-01T21:35:44;96782.09;;;10.19
61977;BMP280;45905;50.570;10.428;2023-04-01T21:47:33;96799.19;;;10.17
61977;BMP280;45905;50.570;10.428;2023-04-01T21:50:49;96806.78;;;10.17
61977;BMP280;45905;50.570;10.428;2023-04-01T22:05:17;96828.09;;;10.09
61977;BMP280;45905;50.570;10.428;2023-04-01T22:16:59;96832.19;;;10.10
61977;BMP280;45905;50.570;10.428;2023-04-01T22:23:07;96838.22;;;10.09
61977;BMP280;45905;50.570;10.428;2023-04-01T22:25:50;96848.16;;;10.10
61977;BMP280;45905;50.570;10.428;2023-04-01T22:31:33;96844.06;;;10.09
61977;BMP280;45905;50.570;10.428;2023-04-01T22:39:45;96860.72;;;10.04
61977;BMP280;45905;50.570;10.428;2023-04-01T22:42:43;96858.31;;;9.96
61977;BMP280;45905;50.570;10.428;2023-04-01T22:48:14;96868.59;;;9.94
61977;BMP280;45905;50.570;10.428;2023-04-01T22:51:07;96873.47;;;9.96
61977;BMP280;45905;50.570;10.428;2023-04-01T22:56:40;96874.09;;;9.98
61977;BMP280;45905;50.570;10.428;2023-04-01T23:02:25;96892.16;;;9.95
61977;BMP280;45905;50.570;10.428;2023-04-01T23:04:59;96884.72;;;9.93
61977;BMP280;45905;50.570;10.428;2023-04-01T23:10:41;96889.53;;;9.89
61977;BMP280;45905;50.570;10.428;2023-04-01T23:13:26;96895.44;;;9.81
61977;BMP280;45905;50.570;10.428;2023-04-01T23:15:56;96905.56;;;9.81
61977;BMP280;45905;50.570;10.428;2023-04-01T23:18:52;96901.78;;;9.77
61977;BMP280;45905;50.570;10.428;2023-04-01T23:29:43;96908.31;;;9.72
61977;BMP280;45905;50.570;10.428;2023-04-01T23:32:18;96916.69;;;9.72
61977;BMP280;45905;50.570;10.428;2023-04-01T23:34:49;96919.81;;;9.74
61977;BMP280;45905;50.570;10.428;2023-04-01T23:37:19;96919.50;;;9.77
61977;BMP280;45905;50.570;10.428;2023-04-01T23:39:52;96928.81;;;9.77
61977;BMP280;45905;50.570;10.428;2023-04-01T23:42:42;96922.97;;;9.76
61977;BMP280;45905;50.570;10.428;2023-04-01T23:45:18;96925.97;;;9.80
61977;BMP280;45905;50.570;10.428;2023-04-01T23:47:49;96935.13;;;9.81
61977;BMP280;45905;50.570;10.428;2023-04-01T23:50:24;96929.09;;;9.82
61977;BMP280;45905;50.570;10.428;2023-04-01T23:53:02;96932.41;;;9.82
61977;BMP280;45905;50.570;10.428;2023-04-01T23:55:34;96943.31;;;9.83
